Flight Track Log - Related Links

Times and Time Zones

All times are in EDT time to prevent confusion due to time zone crossing. See the SWA407 flight status page for this flight to view local times or setup timezone preferences in your user account.

Time Position Orientation Groundspeed Altitude Reporting Facility
EDT Latitude Longitude Course Direction KTS MPH feet Rate Location/Type
Fri 03:33:17 PM 28.4167 -81.3000 180° South 141 162 900  Level Orlando TRACON
Fri 03:33:41 PM 28.4000 -81.3000 180° South 142 163 1,600 2,786 Climbing Orlando TRACON
Fri 03:34:41 PM 28.3500 -81.3500 221° Southwest 235 270 4,800 2,700 Climbing Orlando TRACON
Fri 03:35:41 PM 28.3500 -81.4333 270° West 268 308 7,000 1,240 Climbing Orlando TRACON
Fri 03:36:42 PM 28.3500 -81.5167 270° West 255 293 7,300 1,884 Climbing Orlando TRACON
Fri 03:37:42 PM 28.3667 -81.6000 283° West 286 329 10,800 3,291 Climbing Orlando TRACON
Fri 03:40:08 PM 28.4375 -81.8208 290° West 306 352 18,600 3,146 Climbing Jacksonville Center
Fri 03:41:08 PM 28.4656 -81.9197 288° West 318 366 21,600 2,750 Climbing Jacksonville Center
Fri 03:42:08 PM 28.4933 -82.0233 287° West 329 379 24,100 2,150 Climbing Jacksonville Center
Fri 03:43:08 PM 28.5233 -82.1175 290° West 340 391 25,900 1,350 Climbing Jacksonville Center
Fri 03:44:08 PM 28.5989 -82.1997 316° Northwest 359 413 26,800 1,350 Climbing Jacksonville Center
Fri 03:45:08 PM 28.6972 -82.2747 326° Northwest 387 445 28,600 1,950 Climbing Jacksonville Center
Fri 03:46:08 PM 28.7917 -82.3500 325° Northwest 407 468 30,700 2,250 Climbing Jacksonville Center
Fri 03:47:08 PM 28.8961 -82.4064 335° Northwest 412 474 33,100 1,650 Climbing Jacksonville Center
Fri 03:48:08 PM 28.9925 -82.4700 330° Northwest 406 467 34,000 450 Climbing Jacksonville Center
Fri 03:49:08 PM 29.0844 -82.5433 325° Northwest 406 467 34,000  Level Jacksonville Center
Fri 03:50:08 PM 29.1806 -82.6192 325° Northwest 412 474 34,000  Level Jacksonville Center
Fri 03:51:08 PM 29.2747 -82.6950 325° Northwest 417 480 34,000  Level Jacksonville Center
Fri 03:52:08 PM 29.3708 -82.7711 325° Northwest 417 480 34,000  Level Jacksonville Center
Fri 03:53:08 PM 29.4669 -82.8472 325° Northwest 422 486 34,000  Level Jacksonville Center
Fri 03:54:08 PM 29.5672 -82.9283 325° Northwest 427 491 34,000  Level Jacksonville Center
Fri 03:55:08 PM 29.6631 -83.0025 326° Northwest 427 491 34,000  Level Jacksonville Center
Fri 03:56:08 PM 29.7592 -83.0792 325° Northwest 427 491 34,000  Level Jacksonville Center
Fri 03:57:08 PM 29.8550 -83.1583 324° Northwest 427 491 34,000  Level Jacksonville Center
Fri 03:58:08 PM 29.9550 -83.2353 326° Northwest 427 491 34,000  Level Jacksonville Center
Fri 03:59:08 PM 30.0611 -83.3197 325° Northwest 427 491 34,000  Level Jacksonville Center
Fri 04:00:08 PM 30.1633 -83.4019 325° Northwest 432 497 34,000  Level Jacksonville Center
Fri 04:01:08 PM 30.2631 -83.4817 325° Northwest 432 497 34,000  Level Jacksonville Center
Fri 04:02:08 PM 30.3628 -83.5642 324° Northwest 437 503 34,000  Level Jacksonville Center
Fri 04:03:08 PM 30.4628 -83.6444 325° Northwest 437 503 34,000  Level Jacksonville Center
Fri 04:04:08 PM 30.5603 -83.7272 324° Northwest 437 503 34,000  Level Jacksonville Center
Fri 04:05:08 PM 30.6619 -83.8103 325° Northwest 437 503 34,000  Level Jacksonville Center
Fri 04:06:08 PM 30.7636 -83.8886 326° Northwest 437 503 34,000  Level Jacksonville Center
Fri 04:07:08 PM 30.8675 -83.9769 324° Northwest 447 514 34,000  Level Jacksonville Center
Fri 04:08:08 PM 30.9689 -84.0603 325° Northwest 447 514 34,000  Level Jacksonville Center
Fri 04:09:53 PM 31.1392 -84.2014 325° Northwest 468 539 34,000  Level Atlanta Center
Fri 04:10:53 PM 31.2433 -84.2867 325° Northwest 468 539 34,000  Level Atlanta Center
Fri 04:11:53 PM 31.3433 -84.3694 325° Northwest 462 532 34,000  Level Atlanta Center
Fri 04:12:53 PM 31.4475 -84.4575 324° Northwest 457 526 34,000  Level Atlanta Center
Fri 04:13:53 PM 31.5472 -84.5408 325° Northwest 457 526 34,000  Level Atlanta Center
Fri 04:14:53 PM 31.6514 -84.6292 324° Northwest 457 526 34,000 -300 Level Atlanta Center
Fri 04:15:53 PM 31.7531 -84.7153 324° Northwest 452 520 33,400 -800 Descending Atlanta Center
Fri 04:16:53 PM 31.8675 -84.8042 327° Northwest 457 526 32,400 -950 Descending Atlanta Center
Fri 04:17:53 PM 31.9944 -84.8519 342° North 457 526 31,500 -1,550 Descending Atlanta Center
Fri 04:18:53 PM 32.1258 -84.8825 349° North 474 545 29,300 -1,250 Descending Atlanta Center
Fri 04:19:53 PM 32.2592 -84.8961 355° North 499 574 29,000 -450 Descending Atlanta Center
Fri 04:20:53 PM 32.4011 -84.9147 354° North 511 588 28,400 -950 Descending Atlanta Center
Fri 04:21:53 PM 32.5367 -84.9333 353° North 509 586 27,100 -2,000 Descending Atlanta Center
Fri 04:22:53 PM 32.6742 -84.9519 354° North 500 575 24,400 -3,067 Descending Atlanta Center
Fri 04:24:53 PM 32.9472 -84.9992 352° North 464 534 17,900 -3,200 Descending Atlanta Center
Fri 04:25:53 PM 33.0722 -85.0156 354° North 454 522 14,800 -1,950 Descending Atlanta Center
Fri 04:26:53 PM 33.1892 -85.0169 359° North 434 499 14,000 -400 Descending Atlanta Center
Fri 04:27:53 PM 33.2608 -84.9381 43° Northeast 388 447 14,000 -400 Level Atlanta Center
Fri 04:28:53 PM 33.3261 -84.8394 52° Northeast 368 423 13,200 -900 Descending Atlanta Center
Fri 04:29:53 PM 33.3978 -84.7481 47° Northeast 368 423 12,200 -818 Descending Atlanta Center
Fri 04:30:21 PM 33.4500 -84.7000 38° Northeast 362 417 12,000 -146 Descending Atlanta TRACON
Fri 04:31:15 PM 33.5333 -84.6667 18° North 356 410 12,000  Level Atlanta TRACON
Fri 04:32:15 PM 33.6167 -84.6167 27° Northeast 362 417 12,000  Level Atlanta TRACON
Fri 04:33:15 PM 33.7000 -84.5667 27° Northeast 357 411 12,000 -700 Level Atlanta TRACON
Fri 04:34:15 PM 33.7333 -84.4667 68° East 351 404 10,600 -1,300 Descending Atlanta TRACON
Fri 04:35:15 PM 33.7333 -84.3500 90° East 327 376 9,400 -1,450 Descending Atlanta TRACON
Fri 04:36:15 PM 33.7333 -84.2500 90° East 307 353 7,700 -1,800 Descending Atlanta TRACON
Fri 04:37:15 PM 33.7333 -84.1500 90° East 314 361 5,800 -1,286 Descending Atlanta TRACON
Fri 04:38:21 PM 33.7333 -84.0333 90° East 297 342 5,000 -381 Descending Atlanta TRACON
Fri 04:39:21 PM 33.7000 -83.9833 129° Southeast 230 265 5,000  Level Atlanta TRACON
Fri 04:40:21 PM 33.6667 -84.0000 203° Southwest 158 182 5,000  Level Atlanta TRACON
Fri 04:41:15 PM 33.6500 -84.0500 248° West 160 184 5,000  Level Atlanta TRACON
Fri 04:42:21 PM 33.6500 -84.1000 270° West 158 182 5,000  Level Atlanta TRACON
Fri 04:43:21 PM 33.6500 -84.1500 270° West 154 177 5,000 -350 Level Atlanta TRACON
Fri 04:44:21 PM 33.6500 -84.2167 270° West 155 178 4,300 -789 Descending Atlanta TRACON
Fri 04:45:15 PM 33.6500 -84.2500 270° West 162 186 3,500 -895 Descending Atlanta TRACON
Fri 04:46:15 PM 33.6500 -84.3167 270° West 157 181 2,600 -762 Descending Atlanta TRACON
Fri 04:47:21 PM 33.6500 -84.3667 270° West 132 152 1,900 -714 Descending Atlanta TRACON
Fri 04:48:21 PM 33.6500 -84.4000 270° West 135 155 1,100 -800 Descending Atlanta TRACON

Login

Don't have an account? Register now (free) for customized features, flight alerts, and more!